sensor_id;sensor_type;location;lat;lon;timestamp;pressure;altitude;pressure_sealevel;temperature;humidity
42761;BME280;31672;47.638;19.026;2023-05-23T00:00:13;99852.78;;;15.16;85.56
42761;BME280;31672;47.638;19.026;2023-05-23T00:05:17;99850.53;;;15.07;86.05
42761;BME280;31672;47.638;19.026;2023-05-23T00:10:21;99849.50;;;15.01;86.51
42761;BME280;31672;47.638;19.026;2023-05-23T00:15:24;99843.72;;;14.97;86.20
42761;BME280;31672;47.638;19.026;2023-05-23T00:20:27;99845.19;;;15.00;86.43
42761;BME280;31672;47.638;19.026;2023-05-23T00:25:32;99852.78;;;14.90;86.72
42761;BME280;31672;47.638;19.026;2023-05-23T00:30:38;99852.56;;;14.85;87.37
42761;BME280;31672;47.638;19.026;2023-05-23T00:35:42;99842.28;;;14.82;87.62
42761;BME280;31672;47.638;19.026;2023-05-23T00:40:44;99844.31;;;14.80;87.83
42761;BME280;31672;47.638;19.026;2023-05-23T00:45:48;99845.34;;;14.79;88.09
42761;BME280;31672;47.638;19.026;2023-05-23T00:50:53;99843.09;;;14.82;88.33
42761;BME280;31672;47.638;19.026;2023-05-23T00:55:56;99841.03;;;14.84;88.41
42761;BME280;31672;47.638;19.026;2023-05-23T01:00:59;99835.69;;;14.84;88.53
42761;BME280;31672;47.638;19.026;2023-05-23T01:06:03;99842.69;;;14.85;88.89
42761;BME280;31672;47.638;19.026;2023-05-23T01:11:16;99837.97;;;14.87;89.05
42761;BME280;31672;47.638;19.026;2023-05-23T01:16:46;99836.72;;;14.83;88.47
42761;BME280;31672;47.638;19.026;2023-05-23T01:21:53;99844.31;;;14.80;88.79
42761;BME280;31672;47.638;19.026;2023-05-23T01:32:41;99835.25;;;14.61;89.09
42761;BME280;31672;47.638;19.026;2023-05-23T01:37:45;99835.56;;;14.44;88.97
42761;BME280;31672;47.638;19.026;2023-05-23T01:42:48;99837.00;;;14.34;89.36
42761;BME280;31672;47.638;19.026;2023-05-23T01:47:53;99837.16;;;14.26;89.86
42761;BME280;31672;47.638;19.026;2023-05-23T01:52:56;99832.84;;;14.25;89.93
42761;BME280;31672;47.638;19.026;2023-05-23T01:58:01;99832.03;;;14.24;90.40
42761;BME280;31672;47.638;19.026;2023-05-23T02:03:04;99820.53;;;14.24;90.47
42761;BME280;31672;47.638;19.026;2023-05-23T02:08:08;99816.81;;;14.25;90.80
42761;BME280;31672;47.638;19.026;2023-05-23T02:13:11;99819.50;;;14.25;90.52
42761;BME280;31672;47.638;19.026;2023-05-23T02:18:14;99822.34;;;14.16;90.29
42761;BME280;31672;47.638;19.026;2023-05-23T02:23:17;99816.56;;;14.06;91.13
42761;BME280;31672;47.638;19.026;2023-05-23T02:28:20;99818.75;;;13.96;91.63
42761;BME280;31672;47.638;19.026;2023-05-23T02:33:24;99811.16;;;13.93;92.03
42761;BME280;31672;47.638;19.026;2023-05-23T02:38:27;99817.31;;;13.93;92.27
42761;BME280;31672;47.638;19.026;2023-05-23T02:43:31;99810.13;;;13.94;92.24
42761;BME280;31672;47.638;19.026;2023-05-23T02:48:33;99806.03;;;13.91;92.04
42761;BME280;31672;47.638;19.026;2023-05-23T02:53:37;99807.66;;;13.92;92.29
42761;BME280;31672;47.638;19.026;2023-05-23T02:58:41;99811.16;;;13.93;92.06
42761;BME280;31672;47.638;19.026;2023-05-23T03:03:44;99801.50;;;13.92;92.28
42761;BME280;31672;47.638;19.026;2023-05-23T03:08:47;99805.78;;;13.86;92.57
42761;BME280;31672;47.638;19.026;2023-05-23T03:13:50;99808.63;;;13.85;92.81
42761;BME280;31672;47.638;19.026;2023-05-23T03:18:53;99817.06;;;13.82;93.03
42761;BME280;31672;47.638;19.026;2023-05-23T03:23:57;99828.34;;;13.84;93.32
42761;BME280;31672;47.638;19.026;2023-05-23T03:29:01;99823.03;;;13.84;93.55
42761;BME280;31672;47.638;19.026;2023-05-23T03:34:04;99821.38;;;13.83;94.29
42761;BME280;31672;47.638;19.026;2023-05-23T03:39:07;99817.28;;;13.87;94.68
42761;BME280;31672;47.638;19.026;2023-05-23T03:44:10;99816.28;;;13.88;94.94
42761;BME280;31672;47.638;19.026;2023-05-23T03:49:14;99821.19;;;13.91;94.94
42761;BME280;31672;47.638;19.026;2023-05-23T03:54:17;99826.53;;;13.91;94.86
42761;BME280;31672;47.638;19.026;2023-05-23T03:59:20;99828.38;;;13.90;95.10
42761;BME280;31672;47.638;19.026;2023-05-23T04:04:24;99823.88;;;13.91;95.34
42761;BME280;31672;47.638;19.026;2023-05-23T04:09:28;99812.81;;;13.94;95.80
42761;BME280;31672;47.638;19.026;2023-05-23T04:14:31;99814.25;;;14.03;95.92
42761;BME280;31672;47.638;19.026;2023-05-23T04:19:35;99818.22;;;14.14;96.20
42761;BME280;31672;47.638;19.026;2023-05-23T04:24:38;99821.13;;;14.26;96.28
42761;BME280;31672;47.638;19.026;2023-05-23T04:29:41;99814.19;;;14.38;96.38
42761;BME280;31672;47.638;19.026;2023-05-23T04:34:46;99812.41;;;14.52;96.02
42761;BME280;31672;47.638;19.026;2023-05-23T04:39:49;99813.03;;;14.60;95.25
42761;BME280;31672;47.638;19.026;2023-05-23T04:44:53;99818.81;;;14.70;95.02
42761;BME280;31672;47.638;19.026;2023-05-23T04:49:58;99809.16;;;14.83;95.16
42761;BME280;31672;47.638;19.026;2023-05-23T04:55:02;99810.59;;;14.98;95.07
42761;BME280;31672;47.638;19.026;2023-05-23T05:00:07;99805.44;;;15.10;94.16
42761;BME280;31672;47.638;19.026;2023-05-23T05:05:13;99800.09;;;15.30;94.89
42761;BME280;31672;47.638;19.026;2023-05-23T05:10:16;99791.56;;;15.53;94.42
42761;BME280;31672;47.638;19.026;2023-05-23T05:15:19;99792.75;;;15.77;94.02
42761;BME280;31672;47.638;19.026;2023-05-23T05:20:22;99798.03;;;16.03;93.13
42761;BME280;31672;47.638;19.026;2023-05-23T05:25:25;99794.41;;;16.29;91.56
42761;BME280;31672;47.638;19.026;2023-05-23T05:30:33;99798.41;;;16.52;89.87
42761;BME280;31672;47.638;19.026;2023-05-23T05:35:40;99793.53;;;16.74;89.42
42761;BME280;31672;47.638;19.026;2023-05-23T05:40:44;99797.09;;;16.93;88.02
42761;BME280;31672;47.638;19.026;2023-05-23T05:45:47;99804.38;;;17.10;87.00
42761;BME280;31672;47.638;19.026;2023-05-23T05:50:50;99798.81;;;17.30;86.45
42761;BME280;31672;47.638;19.026;2023-05-23T05:55:54;99796.97;;;17.31;85.61
42761;BME280;31672;47.638;19.026;2023-05-23T06:00:57;99801.09;;;17.52;85.92
42761;BME280;31672;47.638;19.026;2023-05-23T06:06:00;99804.94;;;17.81;85.17
42761;BME280;31672;47.638;19.026;2023-05-23T06:11:04;99800.28;;;18.06;84.23
42761;BME280;31672;47.638;19.026;2023-05-23T06:16:07;99791.88;;;18.33;82.01
42761;BME280;31672;47.638;19.026;2023-05-23T06:21:10;99794.41;;;18.58;79.09
42761;BME280;31672;47.638;19.026;2023-05-23T06:26:13;99786.75;;;18.73;75.95
42761;BME280;31672;47.638;19.026;2023-05-23T06:31:16;99787.03;;;18.83;74.92
42761;BME280;31672;47.638;19.026;2023-05-23T06:36:19;99785.06;;;19.02;73.58
42761;BME280;31672;47.638;19.026;2023-05-23T06:41:22;99781.63;;;19.18;72.62
42761;BME280;31672;47.638;19.026;2023-05-23T06:46:25;99789.38;;;19.38;71.19
42761;BME280;31672;47.638;19.026;2023-05-23T06:51:29;99779.28;;;19.45;71.05
42761;BME280;31672;47.638;19.026;2023-05-23T06:56:35;99768.75;;;19.67;72.34
42761;BME280;31672;47.638;19.026;2023-05-23T07:01:39;99768.22;;;19.94;72.44
42761;BME280;31672;47.638;19.026;2023-05-23T07:06:42;99762.81;;;20.22;69.96
42761;BME280;31672;47.638;19.026;2023-05-23T07:11:45;99763.75;;;20.45;69.33
42761;BME280;31672;47.638;19.026;2023-05-23T07:16:48;99754.00;;;20.72;68.84
42761;BME280;31672;47.638;19.026;2023-05-23T07:21:51;99749.81;;;20.98;67.54
42761;BME280;31672;47.638;19.026;2023-05-23T07:26:54;99744.72;;;21.19;65.87
42761;BME280;31672;47.638;19.026;2023-05-23T07:31:58;99751.03;;;21.41;63.95
42761;BME280;31672;47.638;19.026;2023-05-23T07:37:01;99751.53;;;21.60;63.04
42761;BME280;31672;47.638;19.026;2023-05-23T07:42:04;99751.97;;;21.74;62.10
42761;BME280;31672;47.638;19.026;2023-05-23T07:47:07;99738.88;;;21.87;60.75
42761;BME280;31672;47.638;19.026;2023-05-23T07:52:10;99742.31;;;22.05;61.30
42761;BME280;31672;47.638;19.026;2023-05-23T07:57:13;99732.00;;;22.24;61.22
42761;BME280;31672;47.638;19.026;2023-05-23T08:02:19;99728.03;;;22.36;60.38
42761;BME280;31672;47.638;19.026;2023-05-23T08:07:22;99730.38;;;22.55;59.77
42761;BME280;31672;47.638;19.026;2023-05-23T08:12:25;99734.03;;;22.70;58.41
42761;BME280;31672;47.638;19.026;2023-05-23T08:17:29;99735.22;;;22.85;58.37
42761;BME280;31672;47.638;19.026;2023-05-23T08:22:32;99725.53;;;22.89;57.34
42761;BME280;31672;47.638;19.026;2023-05-23T08:27:35;99723.41;;;22.96;58.23
42761;BME280;31672;47.638;19.026;2023-05-23T08:32:38;99722.19;;;23.19;58.58
42761;BME280;31672;47.638;19.026;2023-05-23T08:37:41;99716.06;;;23.39;59.37
42761;BME280;31672;47.638;19.026;2023-05-23T08:42:48;99713.16;;;23.56;56.49
42761;BME280;31672;47.638;19.026;2023-05-23T08:47:51;99710.31;;;23.77;57.15
42761;BME280;31672;47.638;19.026;2023-05-23T08:52:58;99711.44;;;24.02;56.91
42761;BME280;31672;47.638;19.026;2023-05-23T08:58:01;99719.09;;;24.25;53.53
42761;BME280;31672;47.638;19.026;2023-05-23T09:03:06;99712.63;;;24.42;54.60
42761;BME280;31672;47.638;19.026;2023-05-23T09:08:10;99712.34;;;24.64;54.50
42761;BME280;31672;47.638;19.026;2023-05-23T09:13:15;99709.88;;;24.82;53.38
42761;BME280;31672;47.638;19.026;2023-05-23T09:18:26;99699.00;;;24.98;52.02
42761;BME280;31672;47.638;19.026;2023-05-23T09:23:34;99700.38;;;25.11;50.60
42761;BME280;31672;47.638;19.026;2023-05-23T09:28:38;99695.16;;;25.24;49.83
42761;BME280;31672;47.638;19.026;2023-05-23T09:33:47;99691.00;;;25.42;50.23
42761;BME280;31672;47.638;19.026;2023-05-23T09:38:50;99689.88;;;25.58;48.68
42761;BME280;31672;47.638;19.026;2023-05-23T09:43:54;99687.63;;;25.71;48.74
42761;BME280;31672;47.638;19.026;2023-05-23T09:48:58;99678.84;;;25.89;46.72
42761;BME280;31672;47.638;19.026;2023-05-23T09:54:02;99676.25;;;26.13;46.15
42761;BME280;31672;47.638;19.026;2023-05-23T09:59:05;99674.47;;;26.32;46.03
42761;BME280;31672;47.638;19.026;2023-05-23T10:04:10;99675.81;;;26.35;45.21
42761;BME280;31672;47.638;19.026;2023-05-23T10:09:16;99664.75;;;26.21;45.56
42761;BME280;31672;47.638;19.026;2023-05-23T10:14:20;99670.50;;;26.14;46.84
42761;BME280;31672;47.638;19.026;2023-05-23T10:19:43;99665.94;;;26.10;45.32
42761;BME280;31672;47.638;19.026;2023-05-23T10:24:49;99677.75;;;25.90;45.95
42761;BME280;31672;47.638;19.026;2023-05-23T10:29:53;99676.38;;;25.93;47.20
42761;BME280;31672;47.638;19.026;2023-05-23T10:35:00;99662.56;;;25.79;46.91
42761;BME280;31672;47.638;19.026;2023-05-23T10:40:16;99660.09;;;25.82;48.24
42761;BME280;31672;47.638;19.026;2023-05-23T10:45:23;99651.41;;;26.20;47.62
42761;BME280;31672;47.638;19.026;2023-05-23T10:50:35;99642.59;;;26.67;45.32
42761;BME280;31672;47.638;19.026;2023-05-23T10:55:39;99633.50;;;27.06;44.73
42761;BME280;31672;47.638;19.026;2023-05-23T11:01:06;99631.25;;;27.32;44.07
42761;BME280;31672;47.638;19.026;2023-05-23T11:16:54;99611.53;;;27.96;41.48
42761;BME280;31672;47.638;19.026;2023-05-23T11:22:00;99603.00;;;28.17;39.18
42761;BME280;31672;47.638;19.026;2023-05-23T11:27:11;99594.97;;;28.07;40.02
42761;BME280;31672;47.638;19.026;2023-05-23T11:32:14;99583.84;;;28.03;39.36
42761;BME280;31672;47.638;19.026;2023-05-23T11:37:20;99583.94;;;27.98;40.30
42761;BME280;31672;47.638;19.026;2023-05-23T11:42:28;99572.22;;;27.79;39.70
42761;BME280;31672;47.638;19.026;2023-05-23T11:47:31;99567.88;;;27.78;40.97
42761;BME280;31672;47.638;19.026;2023-05-23T11:52:42;99568.16;;;27.76;39.88
42761;BME280;31672;47.638;19.026;2023-05-23T11:57:47;99561.16;;;27.51;40.79
42761;BME280;31672;47.638;19.026;2023-05-23T12:02:50;99558.09;;;27.15;43.46
42761;BME280;31672;47.638;19.026;2023-05-23T12:07:54;99565.41;;;26.72;50.65
42761;BME280;31672;47.638;19.026;2023-05-23T12:12:57;99551.66;;;26.29;51.16
42761;BME280;31672;47.638;19.026;2023-05-23T12:18:00;99535.75;;;26.12;51.92
42761;BME280;31672;47.638;19.026;2023-05-23T12:23:04;99532.56;;;26.05;48.71
42761;BME280;31672;47.638;19.026;2023-05-23T12:28:09;99531.31;;;26.21;51.38
42761;BME280;31672;47.638;19.026;2023-05-23T12:33:18;99522.97;;;26.36;53.14
42761;BME280;31672;47.638;19.026;2023-05-23T12:38:21;99504.75;;;26.61;48.95
42761;BME280;31672;47.638;19.026;2023-05-23T12:43:25;99501.09;;;26.94;45.68
42761;BME280;31672;47.638;19.026;2023-05-23T12:48:28;99502.44;;;26.73;43.31
42761;BME280;31672;47.638;19.026;2023-05-23T12:53:31;99491.34;;;26.46;45.56
42761;BME280;31672;47.638;19.026;2023-05-23T12:58:34;99485.50;;;26.76;45.07
42761;BME280;31672;47.638;19.026;2023-05-23T13:03:38;99485.94;;;27.26;42.34
42761;BME280;31672;47.638;19.026;2023-05-23T13:08:41;99475.06;;;27.59;42.10
42761;BME280;31672;47.638;19.026;2023-05-23T13:13:45;99472.44;;;27.86;40.35
42761;BME280;31672;47.638;19.026;2023-05-23T13:18:49;99476.47;;;28.08;40.44
42761;BME280;31672;47.638;19.026;2023-05-23T13:23:52;99472.88;;;28.40;39.10
42761;BME280;31672;47.638;19.026;2023-05-23T13:28:55;99473.81;;;28.30;40.93
42761;BME280;31672;47.638;19.026;2023-05-23T13:33:58;99475.91;;;28.38;39.94
42761;BME280;31672;47.638;19.026;2023-05-23T13:39:01;99473.97;;;28.52;39.49
42761;BME280;31672;47.638;19.026;2023-05-23T13:44:07;99468.28;;;28.21;37.91
42761;BME280;31672;47.638;19.026;2023-05-23T13:49:10;99463.31;;;28.23;39.41
42761;BME280;31672;47.638;19.026;2023-05-23T13:54:14;99464.59;;;28.12;38.32
42761;BME280;31672;47.638;19.026;2023-05-23T13:59:17;99458.97;;;28.36;38.92
42761;BME280;31672;47.638;19.026;2023-05-23T14:04:22;99461.22;;;28.48;38.02
42761;BME280;31672;47.638;19.026;2023-05-23T14:09:25;99451.47;;;28.83;38.62
42761;BME280;31672;47.638;19.026;2023-05-23T14:14:29;99442.09;;;28.62;35.89
42761;BME280;31672;47.638;19.026;2023-05-23T14:19:32;99441.84;;;28.72;37.34
42761;BME280;31672;47.638;19.026;2023-05-23T14:24:35;99430.13;;;28.71;34.93
42761;BME280;31672;47.638;19.026;2023-05-23T14:29:38;99433.22;;;28.78;36.66
42761;BME280;31672;47.638;19.026;2023-05-23T14:34:41;99436.16;;;28.82;34.15
42761;BME280;31672;47.638;19.026;2023-05-23T14:39:44;99428.34;;;28.89;32.11
42761;BME280;31672;47.638;19.026;2023-05-23T14:44:47;99426.88;;;28.97;32.14
42761;BME280;31672;47.638;19.026;2023-05-23T14:49:50;99426.69;;;29.16;33.22
42761;BME280;31672;47.638;19.026;2023-05-23T14:54:53;99434.97;;;29.24;31.95
42761;BME280;31672;47.638;19.026;2023-05-23T14:59:56;99439.50;;;29.29;32.23
42761;BME280;31672;47.638;19.026;2023-05-23T15:04:59;99438.72;;;29.51;32.82
42761;BME280;31672;47.638;19.026;2023-05-23T15:10:05;99440.31;;;29.74;32.59
42761;BME280;31672;47.638;19.026;2023-05-23T15:15:09;99440.69;;;29.81;33.91
42761;BME280;31672;47.638;19.026;2023-05-23T15:20:12;99443.13;;;29.83;33.31
42761;BME280;31672;47.638;19.026;2023-05-23T15:25:15;99445.38;;;29.81;34.13
42761;BME280;31672;47.638;19.026;2023-05-23T15:30:23;99441.69;;;29.41;34.86
42761;BME280;31672;47.638;19.026;2023-05-23T15:35:26;99458.84;;;28.83;35.05
42761;BME280;31672;47.638;19.026;2023-05-23T15:40:29;99455.81;;;28.15;35.18
42761;BME280;31672;47.638;19.026;2023-05-23T15:45:32;99446.13;;;27.77;36.66
42761;BME280;31672;47.638;19.026;2023-05-23T15:50:36;99438.16;;;27.47;37.68
42761;BME280;31672;47.638;19.026;2023-05-23T15:55:40;99437.38;;;27.09;35.86
42761;BME280;31672;47.638;19.026;2023-05-23T16:00:44;99445.44;;;26.77;36.47
42761;BME280;31672;47.638;19.026;2023-05-23T16:05:47;99446.84;;;26.50;36.52
42761;BME280;31672;47.638;19.026;2023-05-23T16:10:50;99442.13;;;26.32;37.52
42761;BME280;31672;47.638;19.026;2023-05-23T16:15:54;99453.72;;;26.19;37.17
42761;BME280;31672;47.638;19.026;2023-05-23T16:20:57;99446.28;;;26.00;40.11
42761;BME280;31672;47.638;19.026;2023-05-23T16:26:00;99455.00;;;25.68;42.40
42761;BME280;31672;47.638;19.026;2023-05-23T16:31:03;99445.19;;;25.38;43.00
42761;BME280;31672;47.638;19.026;2023-05-23T16:36:06;99458.13;;;25.12;44.19
42761;BME280;31672;47.638;19.026;2023-05-23T16:41:09;99467.50;;;24.86;45.60
42761;BME280;31672;47.638;19.026;2023-05-23T16:46:12;99487.13;;;24.72;46.25
42761;BME280;31672;47.638;19.026;2023-05-23T16:51:16;99484.47;;;24.57;46.99
42761;BME280;31672;47.638;19.026;2023-05-23T16:56:19;99476.91;;;24.39;48.12
42761;BME280;31672;47.638;19.026;2023-05-23T17:01:23;99517.38;;;24.20;50.12
42761;BME280;31672;47.638;19.026;2023-05-23T17:06:26;99577.84;;;23.59;47.90
42761;BME280;31672;47.638;19.026;2023-05-23T17:11:29;99592.59;;;22.58;50.35
42761;BME280;31672;47.638;19.026;2023-05-23T17:16:32;99604.00;;;21.69;53.75
42761;BME280;31672;47.638;19.026;2023-05-23T17:21:36;99605.09;;;21.02;55.77
42761;BME280;31672;47.638;19.026;2023-05-23T17:26:39;99632.69;;;20.66;57.23
42761;BME280;31672;47.638;19.026;2023-05-23T17:31:42;99629.16;;;20.31;60.22
42761;BME280;31672;47.638;19.026;2023-05-23T17:36:46;99643.03;;;20.07;61.95
42761;BME280;31672;47.638;19.026;2023-05-23T17:41:49;99646.66;;;19.84;63.38
42761;BME280;31672;47.638;19.026;2023-05-23T17:46:52;99639.97;;;19.58;64.69
42761;BME280;31672;47.638;19.026;2023-05-23T17:51:55;99660.88;;;19.39;66.15
42761;BME280;31672;47.638;19.026;2023-05-23T17:56:58;99650.47;;;19.19;67.49
42761;BME280;31672;47.638;19.026;2023-05-23T18:02:01;99652.03;;;19.03;69.21
42761;BME280;31672;47.638;19.026;2023-05-23T18:07:10;99662.00;;;18.91;69.73
42761;BME280;31672;47.638;19.026;2023-05-23T18:12:14;99672.78;;;18.79;69.10
42761;BME280;31672;47.638;19.026;2023-05-23T18:17:18;99678.16;;;18.79;67.68
42761;BME280;31672;47.638;19.026;2023-05-23T18:22:23;99668.22;;;18.80;68.11
42761;BME280;31672;47.638;19.026;2023-05-23T18:27:26;99670.41;;;18.71;69.65
42761;BME280;31672;47.638;19.026;2023-05-23T18:32:29;99675.06;;;18.52;72.29
42761;BME280;31672;47.638;19.026;2023-05-23T18:37:33;99657.50;;;18.26;73.89
42761;BME280;31672;47.638;19.026;2023-05-23T18:42:36;99647.31;;;17.86;78.49
42761;BME280;31672;47.638;19.026;2023-05-23T18:47:39;99663.66;;;17.36;81.61
42761;BME280;31672;47.638;19.026;2023-05-23T18:52:42;99695.63;;;17.01;83.81
42761;BME280;31672;47.638;19.026;2023-05-23T18:57:45;99719.16;;;16.81;85.25
42761;BME280;31672;47.638;19.026;2023-05-23T19:02:48;99734.28;;;16.75;85.84
42761;BME280;31672;47.638;19.026;2023-05-23T19:07:51;99734.28;;;16.75;86.63
42761;BME280;31672;47.638;19.026;2023-05-23T19:12:55;99753.81;;;16.82;88.32
42761;BME280;31672;47.638;19.026;2023-05-23T19:17:58;99756.69;;;16.88;89.04
42761;BME280;31672;47.638;19.026;2023-05-23T19:23:01;99766.53;;;16.94;89.35
42761;BME280;31672;47.638;19.026;2023-05-23T19:28:04;99756.78;;;16.99;89.83
42761;BME280;31672;47.638;19.026;2023-05-23T19:33:08;99750.31;;;17.07;90.48
42761;BME280;31672;47.638;19.026;2023-05-23T19:38:11;99758.81;;;17.04;88.85
42761;BME280;31672;47.638;19.026;2023-05-23T19:43:14;99752.41;;;17.05;89.67
42761;BME280;31672;47.638;19.026;2023-05-23T19:48:17;99752.81;;;17.02;90.56
42761;BME280;31672;47.638;19.026;2023-05-23T19:53:20;99743.72;;;17.03;90.62
42761;BME280;31672;47.638;19.026;2023-05-23T19:58:24;99754.69;;;17.01;91.65
42761;BME280;31672;47.638;19.026;2023-05-23T20:03:27;99754.91;;;17.00;91.91
42761;BME280;31672;47.638;19.026;2023-05-23T20:08:31;99754.31;;;16.98;92.79
42761;BME280;31672;47.638;19.026;2023-05-23T20:13:34;99747.09;;;16.98;93.06
42761;BME280;31672;47.638;19.026;2023-05-23T20:18:41;99751.19;;;17.01;93.50
42761;BME280;31672;47.638;19.026;2023-05-23T20:23:44;99757.59;;;17.00;93.94
42761;BME280;31672;47.638;19.026;2023-05-23T20:28:48;99764.91;;;16.93;94.42
42761;BME280;31672;47.638;19.026;2023-05-23T20:33:51;99754.31;;;16.98;95.29
42761;BME280;31672;47.638;19.026;2023-05-23T20:38:54;99760.50;;;16.98;96.00
42761;BME280;31672;47.638;19.026;2023-05-23T20:43:58;99765.94;;;16.92;96.99
42761;BME280;31672;47.638;19.026;2023-05-23T20:49:03;99765.56;;;16.88;97.52
42761;BME280;31672;47.638;19.026;2023-05-23T20:54:06;99777.09;;;16.89;98.21
42761;BME280;31672;47.638;19.026;2023-05-23T20:59:09;99789.41;;;16.71;98.80
42761;BME280;31672;47.638;19.026;2023-05-23T21:04:13;99770.25;;;16.61;99.71
42761;BME280;31672;47.638;19.026;2023-05-23T21:09:20;99771.13;;;16.55;100.00
42761;BME280;31672;47.638;19.026;2023-05-23T21:14:24;99765.22;;;16.46;100.00
42761;BME280;31672;47.638;19.026;2023-05-23T21:19:26;99760.25;;;16.43;100.00
42761;BME280;31672;47.638;19.026;2023-05-23T21:24:29;99785.13;;;16.32;100.00
42761;BME280;31672;47.638;19.026;2023-05-23T21:29:33;99791.56;;;16.18;100.00
42761;BME280;31672;47.638;19.026;2023-05-23T21:34:37;99804.44;;;16.02;100.00
42761;BME280;31672;47.638;19.026;2023-05-23T21:39:40;99810.47;;;15.91;100.00
42761;BME280;31672;47.638;19.026;2023-05-23T21:44:54;99820.75;;;15.88;100.00
42761;BME280;31672;47.638;19.026;2023-05-23T21:49:57;99827.75;;;15.89;100.00
42761;BME280;31672;47.638;19.026;2023-05-23T21:55:00;99837.47;;;15.90;100.00
42761;BME280;31672;47.638;19.026;2023-05-23T22:00:04;99844.28;;;15.86;100.00
42761;BME280;31672;47.638;19.026;2023-05-23T22:05:09;99852.72;;;15.83;100.00
42761;BME280;31672;47.638;19.026;2023-05-23T22:10:12;99844.69;;;15.83;100.00
42761;BME280;31672;47.638;19.026;2023-05-23T22:15:15;99845.72;;;15.82;100.00
42761;BME280;31672;47.638;19.026;2023-05-23T22:20:18;99853.97;;;15.87;100.00
42761;BME280;31672;47.638;19.026;2023-05-23T22:25:22;99848.19;;;15.90;100.00
42761;BME280;31672;47.638;19.026;2023-05-23T22:30:27;99836.84;;;15.88;100.00
42761;BME280;31672;47.638;19.026;2023-05-23T22:35:30;99837.66;;;15.88;100.00
42761;BME280;31672;47.638;19.026;2023-05-23T22:40:33;99841.16;;;15.89;100.00
42761;BME280;31672;47.638;19.026;2023-05-23T22:45:36;99840.78;;;15.85;100.00
42761;BME280;31672;47.638;19.026;2023-05-23T22:50:44;99847.81;;;15.73;100.00
42761;BME280;31672;47.638;19.026;2023-05-23T22:55:48;99850.28;;;15.61;100.00
42761;BME280;31672;47.638;19.026;2023-05-23T23:00:51;99855.84;;;15.53;100.00
42761;BME280;31672;47.638;19.026;2023-05-23T23:05:54;99857.31;;;15.49;100.00
42761;BME280;31672;47.638;19.026;2023-05-23T23:10:59;99862.47;;;15.44;100.00
42761;BME280;31672;47.638;19.026;2023-05-23T23:16:03;99857.09;;;15.44;100.00
42761;BME280;31672;47.638;19.026;2023-05-23T23:21:06;99861.41;;;15.45;100.00
42761;BME280;31672;47.638;19.026;2023-05-23T23:26:09;99860.81;;;15.43;100.00
42761;BME280;31672;47.638;19.026;2023-05-23T23:31:13;99861.66;;;15.37;100.00
42761;BME280;31672;47.638;19.026;2023-05-23T23:36:16;99850.72;;;15.32;100.00
42761;BME280;31672;47.638;19.026;2023-05-23T23:41:19;99858.75;;;15.32;100.00
42761;BME280;31672;47.638;19.026;2023-05-23T23:46:22;99855.06;;;15.33;100.00
42761;BME280;31672;47.638;19.026;2023-05-23T23:51:26;99863.69;;;15.35;100.00
42761;BME280;31672;47.638;19.026;2023-05-23T23:56:28;99864.31;;;15.37;100.00
